Time;durP1;ratioP1;P1;durP2;ratioP2;P2;SDS_P1;SDS_P2;PMS_P1;PMS_P2;Temp;Humidity;BMP_temperature;BMP_pressure;BME280_temperature;BME280_humidity;BME280_pressure;Samples;Min_cycle;Max_cycle;Signal;HPM_P1;HPM_P2
2021/06/14 00:02:13;;;;;;;0.00;0.00;;;16.60;99.90;;;;;;5085047;28;20028;-60
2021/06/14 00:04:42;;;;;;;0.10;0.10;;;16.60;99.90;;;;;;5069722;28;20036;-59
2021/06/14 00:07:07;;;;;;;0.00;0.00;;;16.70;99.90;;;;;;5067108;28;20036;-59
2021/06/14 00:09:35;;;;;;;0.17;0.17;;;16.70;99.90;;;;;;5069138;28;20087;-60
2021/06/14 00:12:03;;;;;;;0.00;0.00;;;16.70;99.90;;;;;;5067889;28;20032;-60
2021/06/14 00:14:29;;;;;;;0.00;0.00;;;16.70;99.90;;;;;;5068690;28;20042;-59
2021/06/14 00:16:57;;;;;;;0.00;0.00;;;16.70;99.90;;;;;;5065697;28;20725;-60
2021/06/14 00:19:23;;;;;;;0.00;0.00;;;16.70;99.90;;;;;;5069313;28;20063;-60
2021/06/14 00:21:48;;;;;;;0.00;0.00;;;16.70;99.90;;;;;;5069282;28;20028;-59
2021/06/14 00:24:15;;;;;;;0.10;0.10;;;16.70;99.90;;;;;;5069548;28;20051;-59
2021/06/14 00:26:40;;;;;;;0.00;0.00;;;16.70;99.90;;;;;;5084282;28;20028;-59
2021/06/14 00:29:08;;;;;;;0.00;0.00;;;16.70;99.90;;;;;;5067882;28;20028;-60
2021/06/14 00:31:36;;;;;;;0.53;0.53;;;16.60;99.90;;;;;;5066681;28;20036;-60
2021/06/14 00:34:02;;;;;;;0.10;0.10;;;16.60;99.90;;;;;;5065212;28;21019;-59
2021/06/14 00:36:30;;;;;;;0.20;0.20;;;16.50;99.90;;;;;;5067818;28;20040;-59
2021/06/14 00:38:56;;;;;;;0.00;0.00;;;16.60;99.90;;;;;;5066952;28;20044;-60
2021/06/14 00:41:21;;;;;;;0.00;0.00;;;16.50;99.90;;;;;;5066831;28;20028;-60
2021/06/14 00:43:49;;;;;;;0.00;0.00;;;16.50;99.90;;;;;;5067861;28;20028;-60
2021/06/14 00:46:15;;;;;;;0.00;0.00;;;16.50;99.90;;;;;;5067480;28;20032;-59
2021/06/14 00:48:41;;;;;;;0.00;0.00;;;16.50;99.90;;;;;;5067662;28;20036;-59
2021/06/14 00:51:09;;;;;;;0.00;0.00;;;16.50;99.90;;;;;;5067023;28;20036;-59
2021/06/14 00:53:40;;;;;;;0.00;0.00;;;16.50;99.90;;;;;;5084425;28;20028;-60
2021/06/14 00:56:08;;;;;;;0.00;0.00;;;16.60;99.90;;;;;;5066098;28;20037;-61
2021/06/14 00:58:35;;;;;;;0.00;0.00;;;16.60;99.90;;;;;;5065571;28;20111;-60
2021/06/14 01:01:03;;;;;;;0.00;0.00;;;16.60;99.90;;;;;;5065767;28;20169;-60
2021/06/14 01:03:29;;;;;;;0.00;0.00;;;16.70;99.90;;;;;;5065979;28;20032;-59
2021/06/14 01:05:58;;;;;;;0.00;0.00;;;16.70;99.90;;;;;;5065204;28;20123;-60
2021/06/14 01:08:24;;;;;;;0.00;0.00;;;16.70;99.90;;;;;;5066004;28;21852;-60
2021/06/14 01:10:52;;;;;;;0.00;0.00;;;16.70;99.90;;;;;;5065412;28;20529;-59
2021/06/14 01:13:51;;;;;;;0.00;0.00;;;16.70;99.90;;;;;;5063971;28;20354;-60
2021/06/14 01:16:33;;;;;;;0.00;0.00;;;16.70;99.90;;;;;;5063426;28;20098;-59
2021/06/14 01:19:21;;;;;;;0.00;0.00;;;16.70;99.90;;;;;;5051293;28;20136;-59
2021/06/14 01:22:13;;;;;;;0.00;0.00;;;16.70;99.90;;;;;;5065576;28;20028;-59
2021/06/14 01:25:01;;;;;;;0.00;0.00;;;16.60;99.90;;;;;;5065678;28;20031;-60
2021/06/14 01:27:50;;;;;;;0.00;0.00;;;16.60;99.90;;;;;;5066655;28;20040;-59
2021/06/14 01:30:27;;;;;;;0.00;0.00;;;16.50;99.90;;;;;;5065522;28;20089;-60
2021/06/14 01:32:56;;;;;;;0.00;0.00;;;16.50;99.90;;;;;;5065594;28;20119;-59
2021/06/14 01:35:36;;;;;;;0.00;0.00;;;16.50;99.90;;;;;;5064893;28;20040;-60
2021/06/14 01:38:06;;;;;;;0.00;0.00;;;16.50;99.90;;;;;;5064518;28;20090;-61
2021/06/14 01:40:33;;;;;;;0.00;0.00;;;16.50;99.90;;;;;;5065023;28;20040;-60
2021/06/14 01:43:03;;;;;;;0.00;0.00;;;16.40;99.90;;;;;;5065514;28;20024;-61
2021/06/14 01:45:30;;;;;;;0.00;0.00;;;16.40;99.90;;;;;;5064778;28;20043;-60
2021/06/14 01:47:59;;;;;;;0.00;0.00;;;16.40;99.90;;;;;;5081705;28;20044;-60
2021/06/14 01:50:29;;;;;;;0.00;0.00;;;16.30;99.90;;;;;;5062804;28;20121;-61
2021/06/14 01:52:57;;;;;;;0.00;0.00;;;16.30;99.90;;;;;;5064618;28;20107;-60
2021/06/14 01:55:24;;;;;;;0.00;0.00;;;16.30;99.90;;;;;;5064139;28;20361;-60
2021/06/14 01:57:53;;;;;;;0.00;0.00;;;16.30;99.90;;;;;;5067838;28;20070;-61
2021/06/14 02:00:25;;;;;;;0.10;0.10;;;16.30;99.90;;;;;;5064482;28;20041;-60
2021/06/14 02:02:53;;;;;;;0.00;0.00;;;16.30;99.90;;;;;;5065013;28;20028;-60
2021/06/14 02:05:27;;;;;;;0.00;0.00;;;16.30;99.90;;;;;;5064619;28;20116;-60
2021/06/14 02:07:53;;;;;;;0.00;0.00;;;16.20;99.90;;;;;;5065594;28;20028;-60
2021/06/14 02:10:21;;;;;;;0.00;0.00;;;16.20;99.90;;;;;;5050737;28;20444;-60
2021/06/14 02:12:49;;;;;;;0.00;0.00;;;16.10;99.90;;;;;;5063708;28;20075;-60
2021/06/14 02:15:19;;;;;;;0.00;0.00;;;16.10;99.90;;;;;;5064690;28;20048;-60
2021/06/14 02:17:46;;;;;;;0.00;0.00;;;16.10;99.90;;;;;;5064685;28;20028;-61
2021/06/14 02:20:16;;;;;;;0.00;0.00;;;16.10;99.90;;;;;;5064875;28;20036;-60
2021/06/14 02:22:41;;;;;;;0.00;0.00;;;16.00;99.90;;;;;;5067539;28;20038;-60
2021/06/14 02:25:10;;;;;;;0.00;0.00;;;16.00;99.90;;;;;;5068541;28;20384;-60
2021/06/14 02:27:36;;;;;;;0.00;0.00;;;15.90;99.90;;;;;;5069188;28;20035;-60
2021/06/14 02:30:20;;;;;;;0.00;0.00;;;15.80;99.90;;;;;;5068560;28;20099;-61
2021/06/14 02:32:50;;;;;;;0.10;0.10;;;15.80;99.90;;;;;;5068385;28;20457;-60
2021/06/14 02:35:16;;;;;;;0.00;0.00;;;15.80;99.90;;;;;;5068384;28;20162;-60
2021/06/14 02:37:52;;;;;;;0.10;0.10;;;15.70;99.90;;;;;;5054570;28;21894;-61
2021/06/14 02:40:23;;;;;;;0.10;0.10;;;15.70;99.90;;;;;;5068890;28;20481;-60
2021/06/14 02:42:49;;;;;;;0.03;0.03;;;15.70;99.90;;;;;;5069556;28;20021;-60
2021/06/14 02:45:15;;;;;;;0.00;0.00;;;15.70;99.90;;;;;;5068650;28;20032;-60
2021/06/14 02:47:43;;;;;;;0.10;0.10;;;15.60;99.90;;;;;;5071387;28;20980;-60
2021/06/14 02:50:12;;;;;;;0.00;0.00;;;15.60;99.90;;;;;;5067310;28;20119;-60
2021/06/14 02:52:40;;;;;;;0.00;0.00;;;15.60;99.90;;;;;;5086575;28;20032;-60
2021/06/14 02:55:13;;;;;;;0.00;0.00;;;15.50;99.90;;;;;;5071113;28;20081;-60
2021/06/14 02:57:43;;;;;;;0.00;0.00;;;15.50;99.90;;;;;;5069347;28;20409;-60
2021/06/14 03:00:10;;;;;;;0.10;0.10;;;15.50;99.90;;;;;;5067099;28;20071;-61
2021/06/14 03:02:37;;;;;;;0.00;0.00;;;15.40;99.90;;;;;;5054219;28;20464;-60
2021/06/14 03:05:04;;;;;;;0.00;0.00;;;15.40;99.90;;;;;;5069561;28;20032;-60
2021/06/14 03:07:30;;;;;;;0.00;0.00;;;15.40;99.90;;;;;;5068750;28;20567;-61
2021/06/14 03:09:55;;;;;;;0.00;0.00;;;15.30;99.90;;;;;;5068954;28;20036;-60
2021/06/14 03:12:25;;;;;;;0.00;0.00;;;15.30;99.90;;;;;;5068301;28;20590;-60
2021/06/14 03:14:51;;;;;;;0.00;0.00;;;15.20;99.90;;;;;;5068617;28;20052;-62
2021/06/14 03:17:20;;;;;;;0.10;0.10;;;15.20;99.90;;;;;;5067613;28;20028;-60
2021/06/14 03:19:49;;;;;;;0.07;0.07;;;15.20;99.90;;;;;;5068900;28;20051;-60
2021/06/14 03:22:17;;;;;;;0.10;0.10;;;15.30;99.90;;;;;;5069083;28;20071;-60
2021/06/14 03:24:43;;;;;;;0.10;0.10;;;15.40;99.90;;;;;;5068854;28;20405;-60
2021/06/14 03:27:10;;;;;;;0.00;0.00;;;15.30;99.90;;;;;;5067544;28;20027;-60
2021/06/14 03:29:40;;;;;;;0.00;0.00;;;15.30;99.90;;;;;;5068103;28;20108;-61
2021/06/14 03:32:06;;;;;;;0.00;0.00;;;15.30;99.90;;;;;;5067379;28;20036;-60
2021/06/14 03:34:35;;;;;;;0.10;0.10;;;15.30;99.90;;;;;;5071815;28;20025;-59
2021/06/14 03:37:01;;;;;;;0.00;0.00;;;15.30;99.90;;;;;;5067712;28;20509;-60
2021/06/14 03:39:27;;;;;;;0.00;0.00;;;15.20;99.90;;;;;;5054991;28;20032;-60
2021/06/14 03:41:53;;;;;;;0.03;0.03;;;15.20;99.90;;;;;;5068645;28;20039;-60
2021/06/14 03:44:20;;;;;;;0.00;0.00;;;15.20;99.90;;;;;;5067747;28;20459;-60
2021/06/14 03:46:49;;;;;;;0.10;0.10;;;15.10;99.90;;;;;;5085068;28;20494;-60
2021/06/14 03:49:15;;;;;;;0.10;0.10;;;15.10;99.90;;;;;;5069076;28;20032;-60
2021/06/14 03:51:43;;;;;;;0.00;0.00;;;15.10;99.90;;;;;;5068792;28;20036;-60
2021/06/14 03:54:11;;;;;;;0.00;0.00;;;15.10;99.90;;;;;;5069450;28;20033;-60
2021/06/14 03:56:41;;;;;;;0.00;0.00;;;15.00;99.90;;;;;;5068886;28;20025;-60
2021/06/14 03:59:09;;;;;;;0.00;0.00;;;15.10;99.90;;;;;;5067527;28;20037;-60
2021/06/14 04:01:35;;;;;;;0.10;0.10;;;15.10;99.90;;;;;;5052499;28;20135;-59
2021/06/14 04:06:47;;;;;;;0.03;0.03;;;15.10;99.90;;;;;;5066963;28;20044;-60
2021/06/14 04:09:15;;;;;;;0.00;0.00;;;15.10;99.90;;;;;;5066705;28;20457;-60
2021/06/14 04:11:41;;;;;;;0.10;0.10;;;15.10;99.90;;;;;;5067012;28;20077;-71
2021/06/14 04:14:06;;;;;;;0.00;0.00;;;15.10;99.90;;;;;;5067155;28;20124;-60
2021/06/14 04:16:32;;;;;;;0.00;0.00;;;15.20;99.90;;;;;;5066784;28;20039;-60
2021/06/14 04:18:58;;;;;;;0.00;0.00;;;15.20;99.90;;;;;;5065055;28;20407;-60
2021/06/14 04:21:23;;;;;;;0.00;0.00;;;15.30;99.90;;;;;;5066134;28;20078;-60
2021/06/14 04:23:51;;;;;;;0.10;0.10;;;15.30;99.90;;;;;;5066606;28;20032;-60
2021/06/14 04:26:17;;;;;;;0.00;0.00;;;15.30;99.90;;;;;;5066323;28;20050;-60
2021/06/14 04:28:45;;;;;;;0.00;0.00;;;15.40;99.90;;;;;;5066620;28;20028;-60
2021/06/14 04:31:11;;;;;;;0.00;0.00;;;15.40;99.90;;;;;;5066160;28;20036;-60
2021/06/14 04:33:41;;;;;;;0.00;0.00;;;15.50;99.90;;;;;;5066117;28;20046;-60
2021/06/14 04:36:07;;;;;;;0.10;0.10;;;15.40;99.90;;;;;;5051368;28;20637;-60
2021/06/14 04:38:33;;;;;;;0.00;0.00;;;15.40;99.90;;;;;;5066120;28;20039;-60
2021/06/14 04:41:02;;;;;;;0.00;0.00;;;15.40;99.90;;;;;;5065468;28;20028;-60
2021/06/14 04:43:30;;;;;;;0.00;0.00;;;15.50;99.90;;;;;;5064374;28;20032;-60
2021/06/14 04:46:01;;;;;;;0.00;0.00;;;15.50;99.90;;;;;;5066269;28;20043;-60
2021/06/14 04:48:31;;;;;;;0.00;0.00;;;15.60;99.90;;;;;;5062620;28;20111;-60
2021/06/14 04:50:59;;;;;;;0.10;0.10;;;15.70;99.90;;;;;;5066026;28;20399;-60
2021/06/14 04:53:25;;;;;;;0.00;0.00;;;15.60;99.90;;;;;;5064784;28;20028;-62
2021/06/14 04:55:50;;;;;;;0.10;0.10;;;15.60;99.90;;;;;;5066059;28;20038;-60
2021/06/14 04:58:16;;;;;;;0.00;0.00;;;15.80;99.90;;;;;;5082122;28;20047;-60
2021/06/14 05:00:42;;;;;;;0.00;0.00;;;15.90;99.90;;;;;;5065418;28;20079;-60
2021/06/14 05:03:08;;;;;;;0.00;0.00;;;16.00;99.90;;;;;;5065649;28;20032;-60
2021/06/14 05:05:36;;;;;;;0.00;0.00;;;16.20;99.90;;;;;;5065096;28;20059;-60
2021/06/14 05:08:02;;;;;;;0.00;0.00;;;16.30;99.90;;;;;;5064023;28;20170;-60
2021/06/14 05:10:28;;;;;;;0.00;0.00;;;16.30;99.90;;;;;;5052406;28;20040;-61
2021/06/14 05:12:56;;;;;;;0.00;0.00;;;16.30;99.90;;;;;;5062378;28;20499;-60
2021/06/14 05:15:25;;;;;;;0.00;0.00;;;16.20;99.90;;;;;;5065535;28;20032;-60
2021/06/14 05:17:51;;;;;;;0.00;0.00;;;16.20;99.90;;;;;;5081787;28;20036;-60
2021/06/14 05:20:19;;;;;;;0.00;0.00;;;16.30;99.90;;;;;;5065503;28;20035;-60
2021/06/14 05:22:45;;;;;;;0.00;0.00;;;16.20;99.90;;;;;;5065771;28;20060;-60
2021/06/14 05:25:12;;;;;;;0.00;0.00;;;16.30;99.90;;;;;;5065474;28;20448;-60
2021/06/14 05:27:38;;;;;;;0.00;0.00;;;16.30;99.90;;;;;;5064945;28;20119;-60
2021/06/14 05:30:04;;;;;;;0.00;0.00;;;16.30;99.90;;;;;;5064824;28;20036;-60
2021/06/14 05:32:31;;;;;;;0.00;0.00;;;16.40;99.90;;;;;;5064417;28;20024;-60
2021/06/14 05:34:58;;;;;;;0.00;0.00;;;16.40;99.90;;;;;;5064816;28;20024;-61
2021/06/14 05:37:26;;;;;;;0.00;0.00;;;16.40;99.90;;;;;;5061983;28;20127;-60
2021/06/14 05:39:54;;;;;;;0.00;0.00;;;16.40;99.90;;;;;;5065419;28;20185;-60
2021/06/14 05:42:19;;;;;;;0.00;0.00;;;16.50;99.90;;;;;;5064634;28;20107;-60
2021/06/14 05:44:45;;;;;;;0.00;0.00;;;16.50;99.70;;;;;;5065073;28;20066;-60
2021/06/14 05:47:10;;;;;;;0.00;0.00;;;16.60;99.80;;;;;;5061726;28;20423;-60
2021/06/14 05:49:36;;;;;;;0.00;0.00;;;16.60;99.90;;;;;;5061928;28;20029;-60
2021/06/14 05:52:02;;;;;;;0.00;0.00;;;16.80;99.90;;;;;;5061805;28;20036;-60
2021/06/14 05:54:28;;;;;;;0.00;0.00;;;16.90;99.30;;;;;;5062896;28;20453;-60
2021/06/14 05:56:55;;;;;;;0.00;0.00;;;17.00;98.90;;;;;;5065302;28;20032;-60
2021/06/14 05:59:21;;;;;;;0.00;0.00;;;17.10;99.50;;;;;;5064093;28;20044;-60
2021/06/14 06:01:47;;;;;;;0.00;0.00;;;17.20;98.50;;;;;;5061265;28;20486;-61
2021/06/14 06:04:14;;;;;;;0.00;0.00;;;17.30;98.60;;;;;;5065198;28;20025;-60
2021/06/14 06:06:45;;;;;;;0.00;0.00;;;17.40;98.50;;;;;;5065464;28;20020;-60
2021/06/14 06:09:10;;;;;;;0.00;0.00;;;17.60;97.70;;;;;;5064825;28;20411;-60
2021/06/14 06:11:39;;;;;;;0.00;0.00;;;17.60;96.80;;;;;;5064772;28;20039;-60
2021/06/14 06:14:05;;;;;;;0.00;0.00;;;17.70;97.20;;;;;;5065412;28;20037;-61
2021/06/14 06:16:31;;;;;;;0.00;0.00;;;17.80;96.90;;;;;;5080196;28;20028;-61
2021/06/14 06:18:57;;;;;;;0.00;0.00;;;17.90;96.90;;;;;;5064585;28;20060;-61
2021/06/14 06:21:22;;;;;;;0.00;0.00;;;18.10;96.70;;;;;;5062240;28;20133;-60
2021/06/14 06:23:50;;;;;;;0.00;0.00;;;18.20;96.70;;;;;;5065286;28;20032;-60
2021/06/14 06:26:16;;;;;;;0.00;0.00;;;18.30;96.40;;;;;;5064090;28;20543;-60
2021/06/14 06:28:42;;;;;;;0.00;0.00;;;18.50;95.70;;;;;;5065437;28;20475;-60
2021/06/14 06:31:10;;;;;;;0.00;0.00;;;18.60;95.20;;;;;;5081035;28;21821;-60
2021/06/14 06:33:36;;;;;;;0.00;0.00;;;18.70;94.70;;;;;;5062714;28;20111;-59
2021/06/14 06:36:02;;;;;;;0.00;0.00;;;18.70;93.50;;;;;;5079272;28;20047;-60
2021/06/14 06:38:30;;;;;;;0.00;0.00;;;18.60;93.90;;;;;;5064206;28;20041;-60
2021/06/14 06:40:56;;;;;;;0.00;0.00;;;18.60;93.40;;;;;;5064859;28;21935;-60
2021/06/14 06:43:26;;;;;;;0.00;0.00;;;18.50;93.60;;;;;;5064643;28;20020;-61
2021/06/14 06:45:52;;;;;;;0.00;0.00;;;18.50;93.50;;;;;;5064743;28;20032;-60
2021/06/14 06:48:17;;;;;;;0.00;0.00;;;18.60;93.20;;;;;;5080936;28;20094;-60
2021/06/14 06:50:44;;;;;;;0.00;0.00;;;18.70;93.50;;;;;;5064888;28;20555;-60
2021/06/14 06:53:10;;;;;;;0.00;0.00;;;18.70;93.20;;;;;;5064586;28;20472;-60
2021/06/14 06:55:35;;;;;;;0.00;0.00;;;18.80;93.30;;;;;;5063172;28;20036;-59
2021/06/14 06:58:03;;;;;;;0.00;0.00;;;18.90;93.60;;;;;;5064835;28;20451;-59
2021/06/14 07:00:30;;;;;;;0.00;0.00;;;19.00;92.70;;;;;;5064876;28;20041;-59
2021/06/14 07:02:56;;;;;;;0.00;0.00;;;19.20;92.30;;;;;;5064699;28;20017;-59
2021/06/14 07:05:22;;;;;;;0.00;0.00;;;19.20;92.20;;;;;;5050288;28;20056;-60
2021/06/14 07:07:48;;;;;;;0.00;0.00;;;19.20;91.90;;;;;;5064479;28;20560;-60
2021/06/14 07:10:17;;;;;;;0.00;0.00;;;19.30;91.90;;;;;;5067649;28;20405;-60
2021/06/14 07:12:43;;;;;;;0.00;0.00;;;19.40;91.50;;;;;;5068310;28;20027;-60
2021/06/14 07:15:13;;;;;;;0.00;0.00;;;19.40;91.50;;;;;;5054013;28;20063;-60
2021/06/14 07:17:44;;;;;;;0.00;0.00;;;19.50;91.30;;;;;;5070630;28;20025;-59
2021/06/14 07:20:14;;;;;;;0.25;0.25;;;19.50;91.50;;;;;;5069682;28;20973;-60
2021/06/14 07:22:41;;;;;;;0.00;0.00;;;19.60;91.30;;;;;;5067013;28;20090;-60
2021/06/14 07:25:08;;;;;;;0.00;0.00;;;19.60;91.00;;;;;;5068100;28;20086;-60
2021/06/14 07:27:34;;;;;;;0.00;0.00;;;19.70;90.70;;;;;;5067732;28;20024;-60
2021/06/14 07:30:03;;;;;;;0.00;0.00;;;19.70;90.90;;;;;;5067397;28;20103;-60
2021/06/14 07:32:28;;;;;;;0.00;0.00;;;19.80;91.00;;;;;;5067046;28;20036;-60
2021/06/14 07:34:54;;;;;;;0.00;0.00;;;19.80;90.70;;;;;;5065132;28;20020;-61
2021/06/14 07:37:20;;;;;;;0.00;0.00;;;19.90;90.50;;;;;;5065431;28;20111;-60
2021/06/14 07:39:45;;;;;;;0.00;0.00;;;19.90;90.70;;;;;;5066752;28;20023;-61
2021/06/14 07:42:12;;;;;;;0.10;0.10;;;20.00;90.80;;;;;;5039688;28;20170;-61
2021/06/14 07:44:40;;;;;;;0.05;0.05;;;20.00;90.30;;;;;;5065713;28;20032;-60
2021/06/14 07:47:06;;;;;;;0.00;0.00;;;20.10;90.70;;;;;;5067953;28;20051;-60
2021/06/14 07:49:35;;;;;;;0.00;0.00;;;20.10;90.30;;;;;;5067792;28;20702;-59
2021/06/14 07:52:03;;;;;;;0.00;0.00;;;20.30;90.60;;;;;;5066692;28;20028;-59
2021/06/14 07:54:31;;;;;;;0.10;0.10;;;20.40;90.90;;;;;;5068027;28;20110;-59
2021/06/14 07:56:57;;;;;;;0.10;0.10;;;20.50;90.20;;;;;;5067539;28;20131;-61
2021/06/14 07:59:22;;;;;;;0.00;0.00;;;20.60;90.00;;;;;;5066376;28;20036;-59
2021/06/14 08:01:48;;;;;;;0.10;0.10;;;20.70;89.80;;;;;;5067472;28;20107;-60
2021/06/14 08:04:16;;;;;;;0.10;0.10;;;20.80;89.70;;;;;;5068023;28;20063;-60
2021/06/14 08:06:42;;;;;;;0.00;0.00;;;20.90;89.20;;;;;;5066555;28;20036;-60
2021/06/14 08:09:15;;;;;;;0.10;0.10;;;21.00;89.70;;;;;;5066895;28;20330;-60
2021/06/14 08:11:45;;;;;;;0.00;0.00;;;21.10;86.40;;;;;;5066876;28;20028;-60
2021/06/14 08:14:13;;;;;;;0.00;0.00;;;21.10;85.30;;;;;;5066996;28;20051;-61
2021/06/14 08:16:43;;;;;;;0.08;0.08;;;21.10;86.00;;;;;;5067194;28;20035;-60
2021/06/14 08:19:29;;;;;;;0.00;0.00;;;21.10;84.80;;;;;;5067834;28;20872;-61
2021/06/14 08:27:05;;;;;;;0.10;0.10;;;21.30;86.20;;;;;;5067102;28;20035;-60
2021/06/14 08:29:31;;;;;;;0.00;0.00;;;21.50;84.70;;;;;;5063563;28;20025;-60
2021/06/14 08:31:56;;;;;;;0.10;0.10;;;21.60;82.90;;;;;;5082343;28;20252;-60
2021/06/14 08:34:24;;;;;;;0.00;0.00;;;21.60;80.60;;;;;;5065635;28;20384;-59
2021/06/14 08:36:50;;;;;;;0.00;0.00;;;21.60;79.60;;;;;;5065167;28;20043;-60
2021/06/14 08:39:16;;;;;;;0.10;0.10;;;21.70;79.60;;;;;;5065753;28;20027;-59
2021/06/14 08:41:44;;;;;;;0.10;0.10;;;21.80;80.70;;;;;;5051665;28;20039;-60
2021/06/14 08:44:10;;;;;;;0.00;0.00;;;21.90;78.40;;;;;;5081446;28;20028;-59
2021/06/14 08:46:36;;;;;;;0.00;0.00;;;22.00;79.40;;;;;;5081816;28;20028;-60
2021/06/14 08:49:03;;;;;;;0.08;0.08;;;22.10;77.70;;;;;;5065544;28;20028;-60
2021/06/14 08:51:29;;;;;;;0.10;0.10;;;22.20;74.60;;;;;;5066111;28;20036;-60
2021/06/14 08:53:55;;;;;;;0.00;0.00;;;22.20;75.30;;;;;;5066155;28;20029;-60
2021/06/14 08:56:23;;;;;;;0.00;0.00;;;22.30;73.10;;;;;;5065595;28;20089;-61
2021/06/14 08:58:50;;;;;;;0.05;0.05;;;22.40;72.00;;;;;;5066803;28;20055;-60
2021/06/14 09:01:16;;;;;;;0.10;0.10;;;22.40;72.60;;;;;;5068071;28;20082;-60
2021/06/14 09:03:42;;;;;;;0.00;0.00;;;22.50;72.10;;;;;;5065875;28;20035;-59
2021/06/14 09:06:08;;;;;;;0.10;0.10;;;22.60;71.70;;;;;;5051612;28;20033;-60
2021/06/14 09:08:36;;;;;;;0.22;0.22;;;22.70;70.50;;;;;;5064646;28;20048;-60
2021/06/14 09:11:08;;;;;;;0.00;0.00;;;22.60;70.20;;;;;;5066436;28;20032;-60
2021/06/14 09:13:36;;;;;;;0.00;0.00;;;22.70;70.80;;;;;;5068698;28;20098;-59
2021/06/14 09:16:13;;;;;;;0.00;0.00;;;22.80;69.60;;;;;;5082624;28;20130;-60
2021/06/14 09:18:41;;;;;;;0.00;0.00;;;22.90;68.90;;;;;;5064482;28;20064;-60
2021/06/14 09:21:10;;;;;;;0.00;0.00;;;22.90;67.60;;;;;;5063614;28;20111;-60
2021/06/14 09:23:49;;;;;;;0.08;0.08;;;22.90;69.10;;;;;;5065398;28;20032;-60
2021/06/14 09:26:28;;;;;;;0.00;0.00;;;23.00;68.10;;;;;;5081569;28;20111;-60
2021/06/14 09:29:01;;;;;;;0.00;0.00;;;23.00;67.90;;;;;;5063943;28;20032;-60
2021/06/14 09:31:29;;;;;;;0.03;0.03;;;23.10;68.60;;;;;;5066023;28;20028;-60
2021/06/14 09:33:56;;;;;;;0.00;0.00;;;23.20;67.70;;;;;;5065831;28;20036;-60
2021/06/14 09:36:22;;;;;;;0.00;0.00;;;23.30;67.70;;;;;;5080398;28;20037;-60
2021/06/14 09:38:48;;;;;;;0.00;0.00;;;23.30;68.00;;;;;;5064941;28;20065;-61
2021/06/14 09:41:20;;;;;;;0.00;0.00;;;23.40;67.30;;;;;;5080660;28;20578;-60
2021/06/14 09:43:47;;;;;;;0.10;0.10;;;23.40;67.50;;;;;;5065223;28;20368;-60
2021/06/14 09:46:33;;;;;;;0.00;0.00;;;23.60;66.90;;;;;;5066057;28;20063;-60
2021/06/14 09:49:02;;;;;;;0.05;0.05;;;23.60;67.80;;;;;;5065097;28;20109;-60
2021/06/14 09:51:29;;;;;;;0.10;0.10;;;23.70;66.40;;;;;;5066044;28;20135;-60
2021/06/14 09:53:55;;;;;;;0.00;0.00;;;23.80;65.10;;;;;;5080865;28;20043;-60
2021/06/14 09:56:27;;;;;;;0.00;0.00;;;23.80;64.40;;;;;;5064052;28;20036;-61
2021/06/14 09:58:54;;;;;;;0.00;0.00;;;23.90;62.90;;;;;;5065432;28;20036;-60
2021/06/14 10:01:33;;;;;;;0.00;0.00;;;23.90;62.60;;;;;;5065230;28;20044;-59
2021/06/14 10:04:11;;;;;;;0.00;0.00;;;24.00;62.50;;;;;;5080858;28;20025;-60
2021/06/14 10:06:46;;;;;;;0.00;0.00;;;24.00;62.30;;;;;;5065395;28;20108;-60
2021/06/14 10:09:17;;;;;;;0.00;0.00;;;24.10;61.60;;;;;;5065165;28;20032;-59
2021/06/14 10:11:47;;;;;;;0.00;0.00;;;24.10;62.50;;;;;;5080691;28;20036;-60
2021/06/14 10:14:16;;;;;;;0.00;0.00;;;24.20;62.30;;;;;;5065409;28;20032;-59
2021/06/14 10:16:44;;;;;;;0.00;0.00;;;24.30;60.20;;;;;;5062574;28;20058;-60
2021/06/14 10:19:16;;;;;;;0.00;0.00;;;24.20;60.80;;;;;;5065448;28;20025;-59
2021/06/14 10:21:44;;;;;;;0.00;0.00;;;24.20;59.50;;;;;;5064799;28;20621;-62
2021/06/14 10:24:13;;;;;;;0.00;0.00;;;24.20;59.10;;;;;;5065625;28;20106;-60
2021/06/14 10:26:42;;;;;;;0.00;0.00;;;24.20;61.30;;;;;;5064917;28;20058;-60
2021/06/14 10:29:12;;;;;;;0.00;0.00;;;24.40;59.60;;;;;;5064257;28;20055;-60
2021/06/14 10:31:40;;;;;;;0.00;0.00;;;24.40;59.30;;;;;;5064730;28;20036;-61
2021/06/14 10:34:07;;;;;;;0.00;0.00;;;24.60;59.30;;;;;;5063809;28;20039;-60
2021/06/14 10:36:33;;;;;;;0.00;0.00;;;24.70;58.60;;;;;;5065277;28;20563;-60
2021/06/14 10:39:04;;;;;;;0.00;0.00;;;24.70;58.70;;;;;;5049598;28;21808;-60
2021/06/14 10:41:33;;;;;;;0.00;0.00;;;24.90;59.80;;;;;;5064403;28;20032;-59
2021/06/14 10:44:00;;;;;;;0.00;0.00;;;25.00;58.40;;;;;;5065765;28;20032;-60
2021/06/14 10:46:28;;;;;;;0.00;0.00;;;25.10;58.20;;;;;;5068665;28;20024;-60
2021/06/14 10:49:01;;;;;;;0.00;0.00;;;25.10;58.00;;;;;;5067082;28;20060;-61
2021/06/14 10:51:32;;;;;;;0.00;0.00;;;25.20;57.30;;;;;;5068183;28;20138;-61
2021/06/14 10:54:23;;;;;;;0.00;0.00;;;25.30;56.90;;;;;;5068951;28;20028;-61
2021/06/14 10:56:49;;;;;;;0.00;0.00;;;25.30;55.50;;;;;;5066515;28;20461;-59
2021/06/14 10:59:15;;;;;;;0.00;0.00;;;25.40;56.70;;;;;;5067618;28;20101;-59
2021/06/14 11:01:45;;;;;;;0.00;0.00;;;25.40;56.60;;;;;;5067530;28;20101;-59
2021/06/14 11:04:29;;;;;;;0.00;0.00;;;25.40;56.40;;;;;;5068623;28;20024;-60
2021/06/14 11:06:57;;;;;;;0.00;0.00;;;25.40;56.00;;;;;;5053381;28;20025;-60
2021/06/14 11:09:24;;;;;;;0.00;0.00;;;25.50;52.80;;;;;;5067516;28;20028;-59
2021/06/14 11:11:54;;;;;;;0.00;0.00;;;25.50;52.10;;;;;;5068242;28;20036;-60
2021/06/14 11:14:45;;;;;;;0.00;0.00;;;25.50;53.50;;;;;;5067555;28;20357;-60
2021/06/14 11:17:27;;;;;;;0.00;0.00;;;25.60;55.00;;;;;;5068233;28;20024;-60
2021/06/14 11:20:01;;;;;;;;;;;25.80;55.20;;;;;;5068242;28;20116;-60
2021/06/14 11:22:57;;;;;;;0.00;0.00;;;25.90;54.00;;;;;;5068134;28;20006;-60
2021/06/14 11:25:27;;;;;;;0.10;0.10;;;26.00;55.00;;;;;;5066641;28;20041;-61
2021/06/14 11:27:54;;;;;;;0.00;0.00;;;26.10;54.00;;;;;;5070636;28;20035;-60
2021/06/14 11:30:40;;;;;;;0.00;0.00;;;26.40;54.10;;;;;;5068102;28;20036;-61
2021/06/14 11:33:09;;;;;;;0.00;0.00;;;26.70;53.80;;;;;;5067881;28;20048;-60
2021/06/14 11:35:38;;;;;;;0.00;0.00;;;27.00;52.90;;;;;;5067656;28;20060;-60
2021/06/14 11:38:18;;;;;;;0.00;0.00;;;27.40;50.80;;;;;;5083611;28;20120;-60
2021/06/14 11:40:54;;;;;;;0.00;0.00;;;28.30;50.90;;;;;;5067561;28;20078;-60
2021/06/14 11:43:23;;;;;;;0.00;0.00;;;29.30;49.70;;;;;;5067781;28;20021;-61
2021/06/14 11:45:51;;;;;;;0.00;0.00;;;30.30;48.10;;;;;;5065878;28;20024;-60
2021/06/14 11:48:26;;;;;;;0.00;0.00;;;31.10;46.70;;;;;;5066563;28;21930;-61
2021/06/14 11:51:04;;;;;;;0.00;0.00;;;31.70;45.50;;;;;;5068889;28;20055;-60
2021/06/14 11:53:40;;;;;;;0.00;0.00;;;32.70;44.50;;;;;;5067210;28;20033;-60
2021/06/14 11:56:14;;;;;;;0.10;0.10;;;34.10;43.30;;;;;;5066469;28;20059;-61
2021/06/14 11:58:42;;;;;;;0.00;0.00;;;35.30;40.60;;;;;;5067526;28;20024;-61
2021/06/14 12:01:08;;;;;;;0.00;0.00;;;35.50;39.60;;;;;;5066006;28;20045;-62
2021/06/14 12:03:36;;;;;;;0.00;0.00;;;36.20;39.60;;;;;;5066619;28;20621;-62
2021/06/14 12:06:02;;;;;;;0.00;0.00;;;37.20;39.30;;;;;;5067441;28;20437;-61
2021/06/14 12:08:36;;;;;;;0.00;0.00;;;37.30;37.40;;;;;;5067391;28;20039;-61
2021/06/14 12:11:07;;;;;;;0.00;0.00;;;36.40;37.40;;;;;;5068049;28;20028;-61
2021/06/14 12:13:33;;;;;;;0.00;0.00;;;35.70;38.70;;;;;;5064919;28;20119;-62
2021/06/14 12:15:59;;;;;;;0.00;0.00;;;36.40;39.50;;;;;;5066955;28;20047;-62
2021/06/14 12:18:27;;;;;;;0.00;0.00;;;36.80;38.50;;;;;;5064266;28;20024;-62
2021/06/14 12:21:00;;;;;;;0.00;0.00;;;37.70;37.90;;;;;;5066811;28;20047;-62
2021/06/14 12:23:32;;;;;;;0.00;0.00;;;37.70;36.50;;;;;;5068402;28;20020;-61
2021/06/14 12:26:04;;;;;;;0.03;0.03;;;37.70;36.70;;;;;;5066193;28;20403;-62
2021/06/14 12:32:28;;;;;;;0.00;0.00;;;38.30;35.50;;;;;;5067010;28;20043;-62
2021/06/14 12:35:03;;;;;;;0.10;0.10;;;37.10;35.50;;;;;;5057471;28;20048;-61
2021/06/14 12:37:30;;;;;;;0.00;0.00;;;36.70;35.90;;;;;;5067019;28;20047;-61
2021/06/14 12:40:00;;;;;;;0.00;0.00;;;35.80;36.40;;;;;;5065390;28;20032;-61
2021/06/14 12:42:27;;;;;;;0.00;0.00;;;36.00;36.30;;;;;;5065612;28;20044;-62
2021/06/14 12:45:07;;;;;;;0.00;0.00;;;36.10;36.20;;;;;;5080874;28;20155;-62
2021/06/14 12:47:33;;;;;;;0.00;0.00;;;36.50;36.10;;;;;;5065991;28;20028;-62
2021/06/14 12:50:00;;;;;;;0.00;0.00;;;36.40;35.50;;;;;;5065851;28;20024;-61
2021/06/14 12:52:30;;;;;;;0.00;0.00;;;36.70;35.20;;;;;;5066217;28;20135;-61
2021/06/14 12:54:56;;;;;;;0.03;0.03;;;37.10;34.90;;;;;;5064923;28;20035;-61
2021/06/14 12:57:32;;;;;;;0.00;0.00;;;37.50;34.70;;;;;;5066860;28;20127;-61
2021/06/14 12:59:58;;;;;;;0.00;0.00;;;37.70;34.20;;;;;;5081796;28;20152;-62
2021/06/14 13:02:24;;;;;;;0.10;0.10;;;38.50;34.20;;;;;;5067075;28;20033;-62
2021/06/14 13:04:52;;;;;;;0.10;0.10;;;39.30;33.10;;;;;;5065006;28;20053;-62
2021/06/14 13:07:19;;;;;;;0.10;0.10;;;39.70;32.50;;;;;;5065656;28;20353;-62
2021/06/14 13:09:45;;;;;;;0.10;0.10;;;40.20;32.40;;;;;;5051810;28;20024;-62